Time;durP1;ratioP1;P1;durP2;ratioP2;P2;SDS_P1;SDS_P2;PMS_P1;PMS_P2;Temp;Humidity;BMP_temperature;BMP_pressure;BME280_temperature;BME280_humidity;BME280_pressure;Samples;Min_cycle;Max_cycle;Signal;HPM_P1;HPM_P2
2023/06/26 00:00:22;;;;;;;6.95;3.45;;;;;;;;;;5048520;28;20036;-70
2023/06/26 00:02:47;;;;;;;6.40;3.22;;;;;;;;;;5047515;28;20032;-70
2023/06/26 00:05:13;;;;;;;5.32;3.53;;;;;;;;;;5048432;28;20128;-70
2023/06/26 00:07:38;;;;;;;8.27;3.53;;;;;;;;;;5048627;28;20514;-70
2023/06/26 00:10:05;;;;;;;5.63;3.35;;;;;;;;;;5048503;28;20036;-70
2023/06/26 00:12:31;;;;;;;7.10;3.85;;;;;;;;;;5046500;28;20044;-70
2023/06/26 00:14:56;;;;;;;9.18;3.70;;;;;;;;;;5046951;28;20029;-70
2023/06/26 00:17:22;;;;;;;7.85;3.70;;;;;;;;;;5048830;28;20413;-70
2023/06/26 00:19:48;;;;;;;7.32;3.10;;;;;;;;;;5048342;28;20045;-71
2023/06/26 00:22:13;;;;;;;6.30;3.30;;;;;;;;;;5048825;28;20037;-71
2023/06/26 00:24:38;;;;;;;5.75;3.15;;;;;;;;;;5048446;28;20036;-70
2023/06/26 00:27:04;;;;;;;5.78;3.65;;;;;;;;;;5048140;28;20040;-71
2023/06/26 00:29:29;;;;;;;5.38;3.42;;;;;;;;;;5048321;28;20035;-71
2023/06/26 00:31:54;;;;;;;6.97;3.50;;;;;;;;;;5048149;28;20063;-71
2023/06/26 00:34:20;;;;;;;6.38;3.25;;;;;;;;;;5048035;28;20037;-71
2023/06/26 00:36:45;;;;;;;6.45;3.05;;;;;;;;;;5047868;28;20178;-70
2023/06/26 00:39:11;;;;;;;6.63;3.22;;;;;;;;;;5048463;28;20414;-70
2023/06/26 00:41:39;;;;;;;6.35;3.35;;;;;;;;;;5046474;28;20045;-70
2023/06/26 00:44:05;;;;;;;4.65;3.00;;;;;;;;;;5048289;28;20125;-71
2023/06/26 00:46:31;;;;;;;6.28;3.25;;;;;;;;;;5047877;28;20120;-70
2023/06/26 00:48:59;;;;;;;4.70;3.15;;;;;;;;;;5045946;28;20434;-70
2023/06/26 00:51:28;;;;;;;6.28;3.60;;;;;;;;;;5047548;28;20099;-70
2023/06/26 00:53:54;;;;;;;5.60;3.25;;;;;;;;;;5047956;28;20506;-71
2023/06/26 00:56:20;;;;;;;7.35;3.50;;;;;;;;;;5048005;28;20029;-71
2023/06/26 00:58:45;;;;;;;4.57;2.97;;;;;;;;;;5035051;28;20034;-71
2023/06/26 01:01:15;;;;;;;5.18;3.05;;;;;;;;;;5044944;28;20041;-71
2023/06/26 01:03:42;;;;;;;7.60;3.15;;;;;;;;;;5045807;28;20033;-71
2023/06/26 01:06:11;;;;;;;5.75;3.38;;;;;;;;;;5047485;28;20109;-71
2023/06/26 01:08:37;;;;;;;7.75;3.42;;;;;;;;;;5047475;28;20033;-71
2023/06/26 01:11:03;;;;;;;5.25;3.67;;;;;;;;;;5047515;28;20167;-71
2023/06/26 01:13:29;;;;;;;7.68;3.50;;;;;;;;;;5047691;28;20379;-71
2023/06/26 01:15:55;;;;;;;5.47;3.20;;;;;;;;;;5047697;28;20025;-71
2023/06/26 01:18:21;;;;;;;6.72;3.28;;;;;;;;;;5050407;28;20039;-71
2023/06/26 01:20:47;;;;;;;6.60;3.65;;;;;;;;;;5057067;28;20110;-71
2023/06/26 01:23:37;;;;;;;6.50;3.85;;;;;;;;;;5058297;28;20025;-71
2023/06/26 01:26:17;;;;;;;5.53;3.13;;;;;;;;;;5048629;28;20666;-71
2023/06/26 01:28:43;;;;;;;9.15;3.25;;;;;;;;;;5047759;28;20033;-71
2023/06/26 01:31:10;;;;;;;5.55;3.28;;;;;;;;;;5047191;28;20033;-71
2023/06/26 01:33:36;;;;;;;8.40;3.25;;;;;;;;;;5045348;28;20120;-71
2023/06/26 01:36:02;;;;;;;6.28;3.10;;;;;;;;;;5045854;28;20116;-71
2023/06/26 01:38:28;;;;;;;7.15;3.25;;;;;;;;;;5045970;28;20021;-71
2023/06/26 01:40:54;;;;;;;7.22;3.22;;;;;;;;;;5046486;28;20518;-71
2023/06/26 01:43:41;;;;;;;7.25;3.42;;;;;;;;;;5047192;28;20030;-71
2023/06/26 01:46:38;;;;;;;7.07;3.30;;;;;;;;;;5038985;28;20045;-71
2023/06/26 01:49:14;;;;;;;6.95;3.10;;;;;;;;;;5038537;28;20055;-71
2023/06/26 01:51:45;;;;;;;7.97;3.10;;;;;;;;;;5032362;28;20506;-71
2023/06/26 01:54:18;;;;;;;5.93;3.55;;;;;;;;;;5046216;28;20711;-71
2023/06/26 01:56:48;;;;;;;8.23;3.22;;;;;;;;;;5047321;28;20590;-71
2023/06/26 01:59:14;;;;;;;7.45;3.15;;;;;;;;;;5034201;28;20057;-71
2023/06/26 02:01:39;;;;;;;6.93;3.20;;;;;;;;;;5045827;28;20068;-71
2023/06/26 02:04:05;;;;;;;8.20;3.30;;;;;;;;;;5046209;28;20529;-71
2023/06/26 02:06:30;;;;;;;6.93;3.08;;;;;;;;;;5044752;28;20059;-71
2023/06/26 02:08:56;;;;;;;7.63;2.75;;;;;;;;;;5044878;28;20033;-71
2023/06/26 02:11:22;;;;;;;6.18;3.30;;;;;;;;;;5045912;28;20059;-71
2023/06/26 02:13:47;;;;;;;8.52;2.85;;;;;;;;;;5046590;28;20033;-71
2023/06/26 02:16:12;;;;;;;7.32;3.05;;;;;;;;;;5045786;28;20032;-71
2023/06/26 02:18:37;;;;;;;7.18;3.65;;;;;;;;;;5046243;28;20064;-71
2023/06/26 02:21:03;;;;;;;10.15;3.15;;;;;;;;;;5044621;28;20534;-71
2023/06/26 02:23:29;;;;;;;8.45;3.47;;;;;;;;;;5046007;28;20032;-71
2023/06/26 02:25:54;;;;;;;6.82;3.22;;;;;;;;;;5046360;28;20040;-71
2023/06/26 02:28:19;;;;;;;9.75;3.28;;;;;;;;;;5046450;28;20053;-71
2023/06/26 02:30:44;;;;;;;11.07;3.70;;;;;;;;;;5046227;28;20098;-71
2023/06/26 02:33:10;;;;;;;8.82;3.08;;;;;;;;;;5045931;28;20102;-71
2023/06/26 02:35:35;;;;;;;6.50;3.08;;;;;;;;;;5046923;28;20090;-71
2023/06/26 02:38:00;;;;;;;7.43;3.33;;;;;;;;;;5046068;28;20513;-71
2023/06/26 02:40:26;;;;;;;10.38;3.25;;;;;;;;;;5077758;28;20044;-71
2023/06/26 02:42:51;;;;;;;8.40;3.22;;;;;;;;;;5046300;28;20090;-71
2023/06/26 02:45:16;;;;;;;9.77;3.72;;;;;;;;;;5046298;28;20079;-71
2023/06/26 02:47:42;;;;;;;9.55;3.72;;;;;;;;;;5050445;28;20025;-71
2023/06/26 02:50:07;;;;;;;11.80;3.92;;;;;;;;;;5053446;28;20127;-71
2023/06/26 02:52:33;;;;;;;14.52;3.97;;;;;;;;;;5047819;28;20067;-71
2023/06/26 02:54:58;;;;;;;18.15;3.70;;;;;;;;;;5044179;28;20572;-71
2023/06/26 02:57:23;;;;;;;6.57;3.10;;;;;;;;;;5044371;28;20099;-71
2023/06/26 02:59:48;;;;;;;7.78;3.63;;;;;;;;;;5040424;28;20078;-71
2023/06/26 03:02:14;;;;;;;11.95;3.40;;;;;;;;;;5045540;28;20125;-71
2023/06/26 03:04:39;;;;;;;7.72;3.70;;;;;;;;;;5043866;28;20053;-71
2023/06/26 03:07:05;;;;;;;10.80;3.60;;;;;;;;;;5045654;28;20679;-71
2023/06/26 03:09:30;;;;;;;11.38;3.95;;;;;;;;;;5045051;28;20033;-71
2023/06/26 03:11:56;;;;;;;13.65;4.00;;;;;;;;;;5041902;28;20504;-71
2023/06/26 03:14:21;;;;;;;8.65;3.65;;;;;;;;;;5045842;28;20025;-71
2023/06/26 03:16:47;;;;;;;7.07;3.85;;;;;;;;;;5045355;28;20044;-71
2023/06/26 03:19:12;;;;;;;11.25;3.80;;;;;;;;;;5043238;28;20759;-71
2023/06/26 03:21:38;;;;;;;14.02;4.22;;;;;;;;;;5044355;28;20040;-71
2023/06/26 03:24:03;;;;;;;11.70;4.10;;;;;;;;;;5043281;28;20035;-71
2023/06/26 03:26:29;;;;;;;7.22;3.47;;;;;;;;;;5045801;28;20549;-71
2023/06/26 03:28:54;;;;;;;10.35;3.63;;;;;;;;;;5044515;28;20039;-71
2023/06/26 03:31:20;;;;;;;13.63;4.30;;;;;;;;;;5044854;28;20044;-71
2023/06/26 03:33:46;;;;;;;11.27;4.20;;;;;;;;;;5044779;28;20037;-71
2023/06/26 03:36:11;;;;;;;14.07;3.95;;;;;;;;;;5044835;28;20180;-71
2023/06/26 03:38:37;;;;;;;12.13;3.83;;;;;;;;;;5044751;28;20063;-71
2023/06/26 03:41:02;;;;;;;9.02;3.55;;;;;;;;;;5044753;28;20511;-71
2023/06/26 03:43:28;;;;;;;11.63;3.85;;;;;;;;;;5044425;28;20506;-71
2023/06/26 03:45:53;;;;;;;14.32;3.58;;;;;;;;;;5044458;28;20033;-71
2023/06/26 03:48:19;;;;;;;9.20;3.90;;;;;;;;;;5031652;28;20045;-71
2023/06/26 03:50:44;;;;;;;12.27;3.85;;;;;;;;;;5044976;28;20029;-71
2023/06/26 03:53:10;;;;;;;11.93;3.53;;;;;;;;;;5044873;28;20041;-71
2023/06/26 03:55:35;;;;;;;11.27;4.05;;;;;;;;;;5042642;28;20396;-71
2023/06/26 03:58:00;;;;;;;7.85;3.72;;;;;;;;;;5043443;28;20533;-71
2023/06/26 04:00:26;;;;;;;12.02;3.80;;;;;;;;;;5044027;28;20119;-71
2023/06/26 04:02:51;;;;;;;11.15;4.15;;;;;;;;;;5044793;28;20031;-71
2023/06/26 04:05:17;;;;;;;9.45;3.65;;;;;;;;;;5045007;28;20049;-71
2023/06/26 04:07:42;;;;;;;13.35;4.10;;;;;;;;;;5044030;28;20040;-71
2023/06/26 04:10:08;;;;;;;11.15;3.63;;;;;;;;;;5045033;28;20037;-71
2023/06/26 04:12:34;;;;;;;12.07;3.85;;;;;;;;;;5042225;28;20029;-71
2023/06/26 04:14:59;;;;;;;8.60;3.40;;;;;;;;;;5046810;28;20024;-71
2023/06/26 04:17:24;;;;;;;10.23;3.92;;;;;;;;;;5053763;28;20088;-71
2023/06/26 04:19:50;;;;;;;11.60;3.45;;;;;;;;;;5056540;28;20033;-71
2023/06/26 04:22:15;;;;;;;12.38;3.70;;;;;;;;;;5046519;28;20048;-71
2023/06/26 04:24:40;;;;;;;11.52;3.78;;;;;;;;;;5045208;28;20033;-71
2023/06/26 04:27:06;;;;;;;8.88;3.58;;;;;;;;;;5043168;28;20025;-71
2023/06/26 04:29:31;;;;;;;8.15;3.53;;;;;;;;;;5045108;28;20053;-71
2023/06/26 04:31:59;;;;;;;10.00;3.63;;;;;;;;;;5044235;28;20040;-71
2023/06/26 04:34:26;;;;;;;12.00;4.20;;;;;;;;;;5047215;28;20083;-71
2023/06/26 04:36:51;;;;;;;11.82;3.67;;;;;;;;;;5047994;28;20415;-71
2023/06/26 04:39:16;;;;;;;8.50;3.00;;;;;;;;;;5048209;28;20037;-71
2023/06/26 04:41:42;;;;;;;9.40;3.08;;;;;;;;;;5048440;28;20024;-71
2023/06/26 04:44:07;;;;;;;12.20;3.50;;;;;;;;;;5048298;28;20057;-71
2023/06/26 04:46:32;;;;;;;12.95;3.65;;;;;;;;;;5046371;28;20123;-71
2023/06/26 04:48:58;;;;;;;12.05;4.15;;;;;;;;;;5047822;28;20048;-71
2023/06/26 04:51:28;;;;;;;11.77;3.58;;;;;;;;;;5047585;28;20044;-71
2023/06/26 04:53:54;;;;;;;12.82;4.35;;;;;;;;;;5046876;28;20132;-71
2023/06/26 04:56:19;;;;;;;13.23;3.67;;;;;;;;;;5080041;28;20151;-71
2023/06/26 04:58:44;;;;;;;10.13;3.13;;;;;;;;;;5045399;28;20036;-71
2023/06/26 05:01:10;;;;;;;10.48;3.40;;;;;;;;;;5047516;28;20037;-71
2023/06/26 05:03:36;;;;;;;15.25;3.85;;;;;;;;;;5047455;28;20029;-71
2023/06/26 05:06:01;;;;;;;13.15;3.38;;;;;;;;;;5047506;28;20056;-71
2023/06/26 05:08:27;;;;;;;9.90;3.03;;;;;;;;;;5047882;28;20025;-71
2023/06/26 05:10:58;;;;;;;10.27;3.20;;;;;;;;;;5044775;28;20128;-71
2023/06/26 05:13:25;;;;;;;8.93;3.25;;;;;;;;;;5035046;28;20898;-71
2023/06/26 05:15:51;;;;;;;12.23;3.13;;;;;;;;;;5045923;28;20537;-71
2023/06/26 05:18:17;;;;;;;9.02;3.20;;;;;;;;;;5047209;28;20049;-71
2023/06/26 05:20:42;;;;;;;12.10;2.92;;;;;;;;;;5048021;28;20040;-71
2023/06/26 05:23:10;;;;;;;14.48;3.67;;;;;;;;;;5079374;28;20040;-71
2023/06/26 05:25:36;;;;;;;4.90;2.38;;;;;;;;;;5046850;28;20565;-71
2023/06/26 05:28:04;;;;;;;10.48;3.63;;;;;;;;;;5047524;28;20040;-70
2023/06/26 05:30:31;;;;;;;11.00;2.75;;;;;;;;;;5034593;28;20559;-71
2023/06/26 05:32:59;;;;;;;11.52;3.05;;;;;;;;;;5047011;28;20037;-71
2023/06/26 05:35:29;;;;;;;10.60;3.88;;;;;;;;;;5047739;28;20035;-71
2023/06/26 05:37:55;;;;;;;13.30;2.90;;;;;;;;;;5047616;28;20048;-71
2023/06/26 05:40:20;;;;;;;11.02;3.70;;;;;;;;;;5036147;28;20442;-71
2023/06/26 05:42:46;;;;;;;11.77;2.97;;;;;;;;;;5048678;28;20044;-71
2023/06/26 05:45:12;;;;;;;12.90;2.90;;;;;;;;;;5054542;28;20032;-71
2023/06/26 05:47:37;;;;;;;9.50;2.85;;;;;;;;;;5054323;28;20024;-70
2023/06/26 05:50:03;;;;;;;6.97;2.38;;;;;;;;;;5045381;28;20040;-71
2023/06/26 05:52:29;;;;;;;11.93;2.45;;;;;;;;;;5046866;28;20052;-71
2023/06/26 05:54:58;;;;;;;9.23;2.83;;;;;;;;;;5046849;28;20132;-71
2023/06/26 05:57:24;;;;;;;8.20;2.47;;;;;;;;;;5046008;28;20570;-71
2023/06/26 05:59:51;;;;;;;12.85;2.47;;;;;;;;;;5037487;28;20119;-71
2023/06/26 06:02:16;;;;;;;11.70;3.20;;;;;;;;;;5037118;28;20495;-71
2023/06/26 06:04:41;;;;;;;9.07;2.50;;;;;;;;;;5040280;28;20037;-71
2023/06/26 06:07:07;;;;;;;8.57;2.38;;;;;;;;;;5037504;28;20065;-71
2023/06/26 06:09:32;;;;;;;14.23;2.17;;;;;;;;;;5040967;28;20033;-71
2023/06/26 06:11:58;;;;;;;7.38;2.17;;;;;;;;;;5046666;28;20017;-71
2023/06/26 06:14:24;;;;;;;10.13;2.42;;;;;;;;;;5045116;28;20112;-71
2023/06/26 06:16:49;;;;;;;9.57;2.22;;;;;;;;;;5024512;28;20088;-71
2023/06/26 06:19:14;;;;;;;7.68;2.05;;;;;;;;;;5039068;28;20118;-71
2023/06/26 06:21:40;;;;;;;6.15;2.30;;;;;;;;;;5033790;28;20124;-71
2023/06/26 06:24:06;;;;;;;6.25;1.73;;;;;;;;;;5044176;28;20036;-71
2023/06/26 06:26:32;;;;;;;10.98;2.20;;;;;;;;;;5036449;28;20495;-71
2023/06/26 06:28:58;;;;;;;10.75;2.20;;;;;;;;;;5037097;28;20025;-71
2023/06/26 06:31:23;;;;;;;11.10;2.20;;;;;;;;;;5043836;28;20029;-71
2023/06/26 06:33:48;;;;;;;6.88;1.88;;;;;;;;;;5038744;28;20124;-71
2023/06/26 06:36:14;;;;;;;6.97;2.05;;;;;;;;;;5042097;28;20116;-71
2023/06/26 06:38:43;;;;;;;6.20;1.98;;;;;;;;;;5039723;28;20036;-71
2023/06/26 06:41:08;;;;;;;4.25;1.85;;;;;;;;;;5035380;28;20043;-71
2023/06/26 06:43:33;;;;;;;5.85;2.42;;;;;;;;;;5048298;28;20041;-71
2023/06/26 06:45:59;;;;;;;6.55;1.75;;;;;;;;;;5054147;28;20970;-71
2023/06/26 06:48:24;;;;;;;9.70;1.90;;;;;;;;;;5034824;28;20044;-71
2023/06/26 06:50:49;;;;;;;11.98;2.13;;;;;;;;;;5035873;28;20021;-71
2023/06/26 06:53:15;;;;;;;8.13;2.00;;;;;;;;;;5047676;28;20016;-71
2023/06/26 06:55:40;;;;;;;10.57;1.83;;;;;;;;;;5054394;28;20032;-71
2023/06/26 06:58:05;;;;;;;8.38;2.08;;;;;;;;;;5053284;28;20044;-71
2023/06/26 07:00:31;;;;;;;5.75;1.80;;;;;;;;;;5052613;28;20037;-71
2023/06/26 07:02:57;;;;;;;7.55;1.80;;;;;;;;;;5047997;28;20083;-71
2023/06/26 07:05:22;;;;;;;5.45;2.00;;;;;;;;;;5048726;28;20469;-71
2023/06/26 07:07:47;;;;;;;9.32;1.98;;;;;;;;;;5045233;28;20033;-71
2023/06/26 07:10:14;;;;;;;5.55;1.83;;;;;;;;;;5047027;28;20029;-71
2023/06/26 07:12:39;;;;;;;7.82;1.70;;;;;;;;;;5038123;28;20124;-71
2023/06/26 07:15:06;;;;;;;4.20;1.70;;;;;;;;;;5056139;28;20060;-71
2023/06/26 07:17:33;;;;;;;6.90;1.58;;;;;;;;;;5047841;28;20025;-71
2023/06/26 07:20:00;;;;;;;3.85;1.70;;;;;;;;;;5043758;28;20045;-71
2023/06/26 07:22:26;;;;;;;3.97;1.92;;;;;;;;;;5042797;28;20426;-71
2023/06/26 07:24:51;;;;;;;4.47;1.88;;;;;;;;;;5044353;28;20534;-71
2023/06/26 07:27:20;;;;;;;3.30;1.65;;;;;;;;;;5042787;28;20086;-71
2023/06/26 07:29:45;;;;;;;4.57;1.70;;;;;;;;;;5043903;28;20021;-70
2023/06/26 07:32:11;;;;;;;3.95;1.83;;;;;;;;;;5044015;28;20091;-71
2023/06/26 07:34:36;;;;;;;5.75;1.60;;;;;;;;;;5043974;28;20554;-71
2023/06/26 07:37:02;;;;;;;5.28;1.52;;;;;;;;;;5042999;28;20064;-71
2023/06/26 07:39:28;;;;;;;5.30;1.70;;;;;;;;;;5044645;28;20029;-71
2023/06/26 07:41:53;;;;;;;5.72;1.90;;;;;;;;;;5043705;28;20025;-71
2023/06/26 07:44:19;;;;;;;2.88;1.50;;;;;;;;;;5044560;28;20733;-71
2023/06/26 07:46:47;;;;;;;4.95;1.83;;;;;;;;;;5031084;28;20038;-71
2023/06/26 07:49:12;;;;;;;4.70;1.63;;;;;;;;;;5031676;28;20495;-71
2023/06/26 07:51:38;;;;;;;5.45;1.92;;;;;;;;;;5040898;28;20029;-71
2023/06/26 07:54:03;;;;;;;3.28;1.60;;;;;;;;;;5042973;28;20068;-71
2023/06/26 07:56:28;;;;;;;4.82;1.98;;;;;;;;;;5043903;28;20078;-71
2023/06/26 07:58:54;;;;;;;2.88;1.35;;;;;;;;;;5041756;28;20083;-71
2023/06/26 08:01:20;;;;;;;5.10;1.73;;;;;;;;;;5044445;28;20095;-72
2023/06/26 08:03:46;;;;;;;4.18;1.63;;;;;;;;;;5043432;28;20414;-71
2023/06/26 08:06:11;;;;;;;5.40;1.70;;;;;;;;;;5044067;28;20048;-71
2023/06/26 08:08:36;;;;;;;6.97;1.77;;;;;;;;;;5078156;28;20546;-71
2023/06/26 08:11:02;;;;;;;3.05;1.80;;;;;;;;;;5048320;28;20107;-71
2023/06/26 08:13:27;;;;;;;9.35;2.05;;;;;;;;;;5046390;28;20540;-71
2023/06/26 08:15:53;;;;;;;3.60;1.58;;;;;;;;;;5047449;28;20036;-71
2023/06/26 08:18:18;;;;;;;3.28;1.80;;;;;;;;;;5045092;28;20037;-71
2023/06/26 08:20:43;;;;;;;2.75;1.52;;;;;;;;;;5048318;28;20633;-71
2023/06/26 08:23:09;;;;;;;3.33;1.55;;;;;;;;;;5047918;28;20911;-71
2023/06/26 08:25:34;;;;;;;5.80;1.63;;;;;;;;;;5038888;28;20128;-71
2023/06/26 08:27:59;;;;;;;6.13;1.80;;;;;;;;;;5036863;28;20510;-71
2023/06/26 08:30:27;;;;;;;3.75;1.73;;;;;;;;;;5045873;28;20494;-71
2023/06/26 08:32:54;;;;;;;4.93;1.50;;;;;;;;;;5047717;28;20059;-71
2023/06/26 08:35:20;;;;;;;3.28;1.50;;;;;;;;;;5049251;28;20119;-71
2023/06/26 08:37:45;;;;;;;6.03;1.60;;;;;;;;;;5050145;28;20033;-71
2023/06/26 08:40:11;;;;;;;2.42;1.50;;;;;;;;;;5056091;28;20041;-71
2023/06/26 08:42:37;;;;;;;3.80;1.50;;;;;;;;;;5056148;28;20124;-71
2023/06/26 08:45:02;;;;;;;5.45;1.70;;;;;;;;;;5047484;28;20096;-71
2023/06/26 08:47:28;;;;;;;4.25;1.60;;;;;;;;;;5047360;28;20601;-71
2023/06/26 08:50:13;;;;;;;3.42;1.27;;;;;;;;;;5045029;28;20064;-71
2023/06/26 08:53:28;;;;;;;6.07;1.52;;;;;;;;;;5047184;28;20046;-71
2023/06/26 08:55:56;;;;;;;3.70;1.60;;;;;;;;;;5034987;28;20041;-71
2023/06/26 08:58:22;;;;;;;2.60;1.52;;;;;;;;;;5036078;28;20041;-71
2023/06/26 09:00:49;;;;;;;4.28;1.40;;;;;;;;;;5040501;28;20426;-72
2023/06/26 09:03:15;;;;;;;3.47;1.40;;;;;;;;;;5036594;28;20048;-71
2023/06/26 09:05:40;;;;;;;4.05;1.33;;;;;;;;;;5037833;28;20053;-71
2023/06/26 09:08:07;;;;;;;5.47;1.75;;;;;;;;;;5035292;28;20041;-71
2023/06/26 09:10:32;;;;;;;3.45;1.60;;;;;;;;;;5032365;28;20079;-71
2023/06/26 09:12:57;;;;;;;5.38;1.85;;;;;;;;;;5039626;28;20029;-71
2023/06/26 09:15:23;;;;;;;10.35;2.00;;;;;;;;;;5042744;28;20040;-71
2023/06/26 09:17:49;;;;;;;8.50;1.70;;;;;;;;;;5040685;28;20055;-71
2023/06/26 09:20:15;;;;;;;4.80;1.65;;;;;;;;;;5044686;28;20089;-72
2023/06/26 09:22:42;;;;;;;2.13;1.40;;;;;;;;;;5045450;28;20056;-71
2023/06/26 09:25:08;;;;;;;5.72;1.70;;;;;;;;;;5049290;28;20055;-71
2023/06/26 09:27:34;;;;;;;3.00;1.67;;;;;;;;;;5045278;28;20040;-71
2023/06/26 09:30:02;;;;;;;2.35;1.40;;;;;;;;;;5046585;28;20037;-71
2023/06/26 09:32:27;;;;;;;3.33;1.40;;;;;;;;;;5046390;28;20044;-71
2023/06/26 09:34:55;;;;;;;4.90;1.73;;;;;;;;;;5046000;28;20037;-71
2023/06/26 09:37:21;;;;;;;6.28;1.90;;;;;;;;;;5041496;28;20049;-71
2023/06/26 09:39:46;;;;;;;4.45;1.83;;;;;;;;;;5023787;28;20040;-71
2023/06/26 09:42:14;;;;;;;4.22;1.60;;;;;;;;;;5038243;28;20471;-71
2023/06/26 09:44:46;;;;;;;6.47;1.80;;;;;;;;;;5037377;28;20024;-71
2023/06/26 09:47:12;;;;;;;4.10;1.63;;;;;;;;;;5034757;28;20052;-71
2023/06/26 09:49:43;;;;;;;3.72;1.70;;;;;;;;;;5045449;28;20053;-71
2023/06/26 09:52:09;;;;;;;6.40;1.73;;;;;;;;;;5046084;28;20068;-71
2023/06/26 09:54:35;;;;;;;5.38;1.98;;;;;;;;;;5045950;28;20056;-71
2023/06/26 09:57:11;;;;;;;7.00;1.88;;;;;;;;;;5045708;28;20028;-71
2023/06/26 09:59:36;;;;;;;3.22;2.05;;;;;;;;;;5043932;28;20086;-71
2023/06/26 10:02:02;;;;;;;4.75;2.53;;;;;;;;;;5044727;28;20616;-70
2023/06/26 10:04:27;;;;;;;6.93;1.67;;;;;;;;;;5046335;28;20570;-71
2023/06/26 10:06:56;;;;;;;4.63;1.90;;;;;;;;;;5047414;28;20044;-71
2023/06/26 10:09:23;;;;;;;4.60;1.90;;;;;;;;;;5041602;28;20045;-71
2023/06/26 10:11:54;;;;;;;11.30;1.90;;;;;;;;;;5041937;28;20033;-73
2023/06/26 10:14:24;;;;;;;3.92;1.38;;;;;;;;;;5046681;28;20585;-72
2023/06/26 10:16:50;;;;;;;3.47;1.75;;;;;;;;;;5041898;28;20119;-71
2023/06/26 10:19:23;;;;;;;3.33;1.60;;;;;;;;;;5040403;28;20128;-71
2023/06/26 10:21:51;;;;;;;5.85;1.70;;;;;;;;;;5077629;28;20033;-71
2023/06/26 10:24:18;;;;;;;3.90;1.90;;;;;;;;;;5045098;28;20029;-71
2023/06/26 10:26:46;;;;;;;3.35;1.50;;;;;;;;;;5045737;28;20036;-71
2023/06/26 10:29:13;;;;;;;6.32;1.70;;;;;;;;;;5043890;28;20033;-71
2023/06/26 10:31:40;;;;;;;3.38;1.80;;;;;;;;;;5076429;28;20047;-71
2023/06/26 10:34:06;;;;;;;3.55;1.60;;;;;;;;;;5044088;28;20044;-71
2023/06/26 10:36:32;;;;;;;3.22;1.80;;;;;;;;;;5045303;28;20043;-71
2023/06/26 10:39:01;;;;;;;4.20;1.83;;;;;;;;;;5045191;28;20510;-71
2023/06/26 10:41:27;;;;;;;3.38;1.83;;;;;;;;;;5045826;28;20082;-71
2023/06/26 10:44:01;;;;;;;9.70;2.05;;;;;;;;;;5045695;28;20040;-71
2023/06/26 10:46:26;;;;;;;5.43;1.60;;;;;;;;;;5077231;28;20037;-71
2023/06/26 10:48:59;;;;;;;4.30;1.90;;;;;;;;;;5044820;28;20037;-71
2023/06/26 10:51:26;;;;;;;7.10;2.47;;;;;;;;;;5043922;28;20032;-71
2023/06/26 10:53:56;;;;;;;5.18;1.70;;;;;;;;;;5044350;28;20033;-71
2023/06/26 10:56:21;;;;;;;5.03;1.80;;;;;;;;;;5077974;28;20032;-71
2023/06/26 10:58:47;;;;;;;4.30;1.75;;;;;;;;;;5040418;28;20025;-71
2023/06/26 11:01:22;;;;;;;3.58;1.88;;;;;;;;;;5041987;28;20041;-71
2023/06/26 11:03:56;;;;;;;5.95;1.80;;;;;;;;;;5044722;28;20033;-71
2023/06/26 11:06:22;;;;;;;3.22;1.65;;;;;;;;;;5023497;28;20045;-71
2023/06/26 11:08:49;;;;;;;8.57;1.80;;;;;;;;;;5024883;28;20025;-71
2023/06/26 11:11:16;;;;;;;4.00;1.63;;;;;;;;;;5008550;28;20115;-71
2023/06/26 11:13:42;;;;;;;4.13;1.90;;;;;;;;;;5022857;28;20045;-71
2023/06/26 11:16:08;;;;;;;5.03;1.90;;;;;;;;;;5023055;28;20053;-71
2023/06/26 11:18:33;;;;;;;5.40;1.58;;;;;;;;;;5024067;28;20053;-71
2023/06/26 11:21:06;;;;;;;2.70;1.67;;;;;;;;;;5023102;28;20037;-71
2023/06/26 11:23:33;;;;;;;3.88;1.70;;;;;;;;;;5023524;28;20569;-71
2023/06/26 11:26:16;;;;;;;8.85;3.70;;;;;;;;;;5023202;28;20450;-71
2023/06/26 11:28:48;;;;;;;3.67;1.80;;;;;;;;;;5024418;28;20048;-71
2023/06/26 11:31:47;;;;;;;6.47;1.83;;;;;;;;;;5014324;28;20042;-71
2023/06/26 11:34:13;;;;;;;4.25;1.60;;;;;;;;;;5018120;28;20179;-71
2023/06/26 11:36:41;;;;;;;6.07;1.92;;;;;;;;;;5029995;28;20056;-71
2023/06/26 11:39:07;;;;;;;3.45;1.63;;;;;;;;;;5026520;28;20044;-71
2023/06/26 11:41:35;;;;;;;4.47;1.60;;;;;;;;;;5025045;28;20033;-71
2023/06/26 11:44:01;;;;;;;5.05;1.90;;;;;;;;;;5021415;28;20060;-71
2023/06/26 11:46:27;;;;;;;4.57;2.00;;;;;;;;;;5024072;28;20057;-71
2023/06/26 11:48:53;;;;;;;7.63;1.73;;;;;;;;;;5021980;28;20069;-71
2023/06/26 11:51:19;;;;;;;5.35;2.22;;;;;;;;;;5021313;28;20408;-71
2023/06/26 11:53:46;;;;;;;3.42;1.48;;;;;;;;;;5024352;28;20036;-71
2023/06/26 11:56:13;;;;;;;3.15;1.80;;;;;;;;;;5023717;28;20598;-71
2023/06/26 11:59:02;;;;;;;6.50;1.60;;;;;;;;;;5023973;28;20049;-71
2023/06/26 12:01:37;;;;;;;4.55;1.80;;;;;;;;;;5020575;28;20049;-71
2023/06/26 12:04:05;;;;;;;4.20;1.70;;;;;;;;;;5024804;28;20030;-71
2023/06/26 12:06:33;;;;;;;5.80;1.63;;;;;;;;;;5043233;28;20033;-71
2023/06/26 12:09:00;;;;;;;4.88;1.83;;;;;;;;;;5042576;28;20029;-71
2023/06/26 12:11:29;;;;;;;4.28;1.60;;;;;;;;;;5043780;28;20108;-71
2023/06/26 12:13:55;;;;;;;4.90;2.03;;;;;;;;;;5043699;28;20072;-71
2023/06/26 12:16:20;;;;;;;2.83;1.48;;;;;;;;;;5040973;28;20041;-71
2023/06/26 12:18:46;;;;;;;3.88;1.77;;;;;;;;;;5034683;28;20071;-71
2023/06/26 12:21:37;;;;;;;2.90;1.60;;;;;;;;;;5043346;28;20533;-71
2023/06/26 12:24:04;;;;;;;12.68;1.80;;;;;;;;;;5043028;28;20033;-71
2023/06/26 12:26:33;;;;;;;3.45;1.35;;;;;;;;;;5044347;28;20029;-71
2023/06/26 12:29:08;;;;;;;7.15;1.73;;;;;;;;;;5043096;28;20040;-71
2023/06/26 12:31:34;;;;;;;4.95;1.45;;;;;;;;;;5043233;28;20029;-71
2023/06/26 12:34:00;;;;;;;5.47;1.60;;;;;;;;;;5042202;28;20041;-71
2023/06/26 12:36:26;;;;;;;3.97;1.50;;;;;;;;;;5043749;28;20139;-71
2023/06/26 12:38:53;;;;;;;6.13;1.33;;;;;;;;;;5033461;28;20104;-71
2023/06/26 12:41:20;;;;;;;2.75;1.50;;;;;;;;;;5043934;28;20025;-71
2023/06/26 12:43:46;;;;;;;3.30;1.13;;;;;;;;;;5042596;28;20033;-71
2023/06/26 12:46:11;;;;;;;3.42;1.33;;;;;;;;;;5043328;28;20680;-71
2023/06/26 12:48:43;;;;;;;6.20;1.23;;;;;;;;;;5041508;28;20037;-71
2023/06/26 12:51:18;;;;;;;2.28;1.23;;;;;;;;;;5043472;28;20032;-71
2023/06/26 12:53:43;;;;;;;16.48;2.08;;;;;;;;;;5032795;28;20781;-71
2023/06/26 12:56:10;;;;;;;2.78;1.17;;;;;;;;;;5045737;28;20029;-71
2023/06/26 12:58:36;;;;;;;3.90;1.27;;;;;;;;;;5044918;28;20107;-71
2023/06/26 13:01:14;;;;;;;2.75;1.30;;;;;;;;;;5049123;28;20079;-71
2023/06/26 13:03:43;;;;;;;3.45;1.40;;;;;;;;;;5043835;28;20033;-71
2023/06/26 13:06:08;;;;;;;12.07;1.80;;;;;;;;;;5057391;28;20131;-71
2023/06/26 13:08:34;;;;;;;1.80;1.25;;;;;;;;;;5047071;28;20128;-71
2023/06/26 13:11:00;;;;;;;4.95;1.40;;;;;;;;;;5041737;28;20045;-71
2023/06/26 13:13:25;;;;;;;3.30;1.27;;;;;;;;;;5044994;28;20041;-71
2023/06/26 13:15:51;;;;;;;4.03;1.45;;;;;;;;;;5043891;28;20514;-71
2023/06/26 13:18:16;;;;;;;1.95;1.15;;;;;;;;;;5044325;28;20082;-71
2023/06/26 13:20:41;;;;;;;2.58;1.15;;;;;;;;;;5045639;28;20021;-71
2023/06/26 13:23:07;;;;;;;3.30;1.17;;;;;;;;;;5046107;28;20402;-71
2023/06/26 13:25:32;;;;;;;3.45;1.20;;;;;;;;;;5046335;28;20120;-71
2023/06/26 13:27:58;;;;;;;7.07;1.30;;;;;;;;;;5044413;28;20064;-71
2023/06/26 13:30:24;;;;;;;2.00;1.30;;;;;;;;;;5046283;28;20033;-71
2023/06/26 13:32:49;;;;;;;4.85;1.40;;;;;;;;;;5046110;28;20025;-71
2023/06/26 13:35:14;;;;;;;2.00;1.08;;;;;;;;;;5041448;28;20465;-71
2023/06/26 13:37:41;;;;;;;4.55;1.40;;;;;;;;;;5043975;28;20033;-72
2023/06/26 13:40:07;;;;;;;4.68;1.42;;;;;;;;;;5044742;28;20029;-72
2023/06/26 13:42:32;;;;;;;4.32;1.40;;;;;;;;;;5078688;28;20029;-72
2023/06/26 13:44:57;;;;;;;2.25;1.20;;;;;;;;;;5044743;28;20086;-72
2023/06/26 13:47:23;;;;;;;3.35;1.45;;;;;;;;;;5044219;28;20120;-72
2023/06/26 13:49:48;;;;;;;4.22;1.30;;;;;;;;;;5044732;28;20045;-72
2023/06/26 13:52:14;;;;;;;7.13;1.55;;;;;;;;;;5074678;28;20043;-72
2023/06/26 13:54:40;;;;;;;1.98;1.00;;;;;;;;;;5034780;28;20086;-72
2023/06/26 13:57:08;;;;;;;3.22;1.15;;;;;;;;;;5041946;28;20044;-72
2023/06/26 13:59:36;;;;;;;4.35;1.25;;;;;;;;;;5042565;28;20078;-72
2023/06/26 14:02:02;;;;;;;1.80;1.17;;;;;;;;;;5040047;28;20668;-72
2023/06/26 14:04:27;;;;;;;3.00;1.20;;;;;;;;;;5033890;28;20045;-72
2023/06/26 14:06:53;;;;;;;4.43;1.13;;;;;;;;;;5034799;28;20820;-72
2023/06/26 14:09:18;;;;;;;4.75;1.25;;;;;;;;;;5045420;28;21083;-72
2023/06/26 14:11:44;;;;;;;3.80;1.27;;;;;;;;;;5042550;28;20028;-71
2023/06/26 14:14:09;;;;;;;4.68;1.48;;;;;;;;;;5045460;28;20119;-72
2023/06/26 14:16:35;;;;;;;3.40;1.10;;;;;;;;;;5036127;28;20053;-72
2023/06/26 14:19:01;;;;;;;2.92;1.63;;;;;;;;;;5044889;28;20107;-72
2023/06/26 14:21:27;;;;;;;7.32;1.63;;;;;;;;;;5046190;28;20176;-72
2023/06/26 14:23:53;;;;;;;4.20;1.23;;;;;;;;;;5045154;28;20121;-72
2023/06/26 14:26:18;;;;;;;4.50;1.50;;;;;;;;;;5046913;28;20031;-72
2023/06/26 14:28:44;;;;;;;5.43;1.25;;;;;;;;;;5047615;28;20033;-72
2023/06/26 14:31:10;;;;;;;3.53;1.20;;;;;;;;;;5054494;28;20045;-72
2023/06/26 14:33:35;;;;;;;3.42;1.10;;;;;;;;;;5055030;28;20036;-72
2023/06/26 14:36:00;;;;;;;5.20;1.33;;;;;;;;;;5044643;28;20064;-72
2023/06/26 14:38:26;;;;;;;2.63;1.42;;;;;;;;;;5045733;28;20040;-71